Time;durP1;ratioP1;P1;durP2;ratioP2;P2;SDS_P1;SDS_P2;PMS_P1;PMS_P2;Temp;Humidity;BMP_temperature;BMP_pressure;BME280_temperature;BME280_humidity;BME280_pressure;Samples;Min_cycle;Max_cycle;Signal;HPM_P1;HPM_P2
2023/07/21 00:01:08;;;;;;;6.78;3.22;;;27.90;67.40;;;;;;5071956;28;20107;-73
2023/07/21 00:03:35;;;;;;;3.67;2.78;;;27.90;67.40;;;;;;5037696;28;20390;-72
2023/07/21 00:06:06;;;;;;;7.40;3.05;;;27.90;67.30;;;;;;5072378;28;20017;-72
2023/07/21 00:08:35;;;;;;;6.10;2.92;;;27.90;67.30;;;;;;5072232;28;20079;-72
2023/07/21 00:11:01;;;;;;;5.28;3.30;;;27.90;67.30;;;;;;5072071;28;20020;-73
2023/07/21 00:13:27;;;;;;;5.40;2.80;;;27.90;67.50;;;;;;5072377;28;20359;-72
2023/07/21 00:15:54;;;;;;;7.03;2.90;;;27.80;67.50;;;;;;5075396;28;20056;-73
2023/07/21 00:18:21;;;;;;;7.32;3.03;;;27.80;67.40;;;;;;5075671;28;20060;-72
2023/07/21 00:20:47;;;;;;;7.97;2.90;;;27.70;67.20;;;;;;5075696;28;20505;-73
2023/07/21 00:23:14;;;;;;;10.15;2.70;;;27.80;67.30;;;;;;5075534;28;20025;-73
2023/07/21 00:25:40;;;;;;;4.70;2.63;;;27.70;67.20;;;;;;5075823;28;20535;-72
2023/07/21 00:28:05;;;;;;;5.65;3.20;;;27.70;67.30;;;;;;5075545;28;20474;-73
2023/07/21 00:30:33;;;;;;;4.78;2.95;;;27.70;67.30;;;;;;5075773;28;20031;-72
2023/07/21 00:32:59;;;;;;;8.68;2.88;;;27.70;67.10;;;;;;5075537;28;20032;-72
2023/07/21 00:35:25;;;;;;;5.20;2.90;;;27.70;67.00;;;;;;5075469;28;20480;-73
2023/07/21 00:37:51;;;;;;;6.55;2.70;;;27.70;67.00;;;;;;5075424;28;20028;-73
2023/07/21 00:40:19;;;;;;;4.07;2.50;;;27.60;67.20;;;;;;5075233;28;20453;-73
2023/07/21 00:42:45;;;;;;;4.68;2.78;;;27.60;67.30;;;;;;5075020;28;20070;-73
2023/07/21 00:45:14;;;;;;;5.95;2.80;;;27.60;67.20;;;;;;5075599;28;20021;-73
2023/07/21 00:47:40;;;;;;;6.20;2.40;;;27.60;67.20;;;;;;5075334;28;20090;-73
2023/07/21 00:50:08;;;;;;;4.47;2.70;;;27.50;67.00;;;;;;5075376;28;20124;-72
2023/07/21 00:52:34;;;;;;;7.03;3.05;;;27.50;67.20;;;;;;5075247;28;20095;-73
2023/07/21 00:55:01;;;;;;;6.53;2.83;;;27.40;67.20;;;;;;5075138;28;20385;-72
2023/07/21 00:57:27;;;;;;;4.38;2.65;;;27.40;67.30;;;;;;5074127;28;20059;-73
2023/07/21 00:59:53;;;;;;;6.03;2.70;;;27.40;67.30;;;;;;5072314;28;20024;-73
2023/07/21 01:02:18;;;;;;;7.35;2.58;;;27.40;67.50;;;;;;5071876;28;20375;-73
2023/07/21 01:04:45;;;;;;;5.80;2.60;;;27.40;68.10;;;;;;5073408;28;20020;-73
2023/07/21 01:07:11;;;;;;;5.63;2.78;;;27.40;67.50;;;;;;5074654;28;20379;-73
2023/07/21 01:09:40;;;;;;;5.43;2.55;;;27.40;67.50;;;;;;5074552;28;20107;-72
2023/07/21 01:12:06;;;;;;;3.97;2.55;;;27.40;67.60;;;;;;5074436;28;20036;-73
2023/07/21 01:14:36;;;;;;;8.85;2.72;;;27.30;67.60;;;;;;5074577;28;20066;-73
2023/07/21 01:17:06;;;;;;;4.13;2.38;;;27.30;67.40;;;;;;5074765;28;20045;-73
2023/07/21 01:19:32;;;;;;;3.85;2.10;;;27.30;67.50;;;;;;5074124;28;20017;-73
2023/07/21 01:22:10;;;;;;;4.47;2.28;;;27.30;67.50;;;;;;5074360;28;20470;-73
2023/07/21 01:24:43;;;;;;;10.30;2.58;;;27.30;67.60;;;;;;5074468;28;20032;-73
2023/07/21 01:27:12;;;;;;;7.30;2.78;;;27.30;67.60;;;;;;5074380;28;20024;-73
2023/07/21 01:29:41;;;;;;;5.15;2.40;;;27.20;67.60;;;;;;5074065;28;20023;-72
2023/07/21 01:32:09;;;;;;;5.20;2.20;;;27.20;67.50;;;;;;5074187;28;20486;-73
2023/07/21 01:34:36;;;;;;;9.38;2.80;;;27.20;67.40;;;;;;5074260;28;20029;-73
2023/07/21 01:37:04;;;;;;;3.53;2.25;;;27.20;67.60;;;;;;5074107;28;20033;-73
2023/07/21 01:39:31;;;;;;;4.85;2.30;;;27.20;67.60;;;;;;5074000;28;20028;-73
2023/07/21 01:42:00;;;;;;;6.60;2.42;;;27.20;67.60;;;;;;5074261;28;20025;-73
2023/07/21 01:44:26;;;;;;;3.60;2.50;;;27.10;67.40;;;;;;5074164;28;20020;-73
2023/07/21 01:46:54;;;;;;;5.70;2.70;;;27.10;67.40;;;;;;5073999;28;20027;-73
2023/07/21 01:49:20;;;;;;;5.22;2.50;;;27.20;67.60;;;;;;5073798;28;20028;-73
2023/07/21 01:51:48;;;;;;;6.00;2.40;;;27.10;67.60;;;;;;5074225;28;20043;-73
2023/07/21 01:54:26;;;;;;;4.15;2.28;;;27.10;67.80;;;;;;5055891;28;20028;-73
2023/07/21 01:56:59;;;;;;;7.10;2.45;;;27.10;67.70;;;;;;5073926;28;20424;-72
2023/07/21 01:59:26;;;;;;;4.70;2.25;;;27.10;67.80;;;;;;5073736;28;20040;-73
2023/07/21 02:01:54;;;;;;;4.20;2.35;;;27.10;67.50;;;;;;5073718;28;20531;-73
2023/07/21 02:04:21;;;;;;;5.72;3.00;;;27.00;67.50;;;;;;5073839;28;20031;-73
2023/07/21 02:06:47;;;;;;;4.28;2.30;;;27.00;67.50;;;;;;5073458;28;20030;-72
2023/07/21 02:09:14;;;;;;;6.18;2.22;;;27.00;67.40;;;;;;5073828;28;20107;-74
2023/07/21 02:11:42;;;;;;;5.60;2.47;;;27.00;67.20;;;;;;5073710;28;20565;-73
2023/07/21 02:14:08;;;;;;;5.22;2.80;;;27.00;67.40;;;;;;5073709;28;20028;-73
2023/07/21 02:16:34;;;;;;;6.10;2.55;;;26.90;67.40;;;;;;5073085;28;20044;-73
2023/07/21 02:19:00;;;;;;;4.20;2.08;;;26.90;67.50;;;;;;5055481;28;20113;-73
2023/07/21 02:21:26;;;;;;;3.90;2.53;;;26.90;67.80;;;;;;5073686;28;20027;-72
2023/07/21 02:23:51;;;;;;;3.88;2.40;;;26.90;67.80;;;;;;5073253;28;20536;-73
2023/07/21 02:26:19;;;;;;;6.22;2.42;;;26.90;67.80;;;;;;5073403;28;20075;-73
2023/07/21 02:28:45;;;;;;;4.63;2.72;;;26.90;67.90;;;;;;5073238;28;20082;-73
2023/07/21 02:31:11;;;;;;;4.22;2.50;;;26.80;67.80;;;;;;5073350;28;20016;-72
2023/07/21 02:33:36;;;;;;;7.95;2.78;;;26.80;67.90;;;;;;5055344;28;20036;-73
2023/07/21 02:36:05;;;;;;;9.90;3.70;;;26.80;67.90;;;;;;5073295;28;20031;-73
2023/07/21 02:38:30;;;;;;;4.50;2.42;;;26.80;68.00;;;;;;5072385;28;20032;-73
2023/07/21 02:41:04;;;;;;;5.93;2.40;;;26.80;68.20;;;;;;5073645;28;20024;-73
2023/07/21 02:43:30;;;;;;;4.15;2.78;;;26.80;68.10;;;;;;5073126;28;20131;-72
2023/07/21 02:45:56;;;;;;;7.65;2.45;;;26.80;67.80;;;;;;5072970;28;20081;-73
2023/07/21 02:48:22;;;;;;;3.85;2.65;;;26.80;67.70;;;;;;5072966;28;20037;-73
2023/07/21 02:50:52;;;;;;;6.97;2.53;;;26.80;68.00;;;;;;5073153;28;20017;-73
2023/07/21 02:53:19;;;;;;;6.03;2.72;;;26.80;68.20;;;;;;5055013;28;20020;-73
2023/07/21 02:55:46;;;;;;;5.40;2.72;;;26.80;68.10;;;;;;5073056;28;20025;-72
2023/07/21 02:58:13;;;;;;;8.27;3.10;;;26.80;68.00;;;;;;5072961;28;20028;-73
2023/07/21 03:00:40;;;;;;;6.93;2.80;;;26.80;67.90;;;;;;5072715;28;20028;-73
2023/07/21 03:03:15;;;;;;;5.53;2.42;;;26.80;67.60;;;;;;5072928;28;20033;-72
2023/07/21 03:05:41;;;;;;;4.50;2.90;;;26.80;67.60;;;;;;5072934;28;20020;-73
2023/07/21 03:08:07;;;;;;;6.00;2.38;;;26.80;67.70;;;;;;5072831;28;20086;-73
2023/07/21 03:10:33;;;;;;;4.45;2.65;;;26.80;67.60;;;;;;5072173;28;20029;-73
2023/07/21 03:12:59;;;;;;;4.13;2.95;;;26.80;67.60;;;;;;5072394;28;20027;-73
2023/07/21 03:15:25;;;;;;;5.95;2.30;;;26.80;67.80;;;;;;5054693;28;20575;-72
2023/07/21 03:17:51;;;;;;;4.20;2.35;;;26.80;68.10;;;;;;5072539;28;20041;-72
2023/07/21 03:20:16;;;;;;;4.80;2.55;;;26.80;68.40;;;;;;5072653;28;20540;-73
2023/07/21 03:22:43;;;;;;;3.30;2.20;;;26.80;68.60;;;;;;5072675;28;20046;-73
2023/07/21 03:25:10;;;;;;;5.22;2.20;;;26.80;68.40;;;;;;5072497;28;20482;-73
2023/07/21 03:27:38;;;;;;;4.22;2.40;;;26.80;68.30;;;;;;5072439;28;20029;-73
2023/07/21 03:30:09;;;;;;;4.00;2.70;;;26.70;68.50;;;;;;5072458;28;20025;-73
2023/07/21 03:32:35;;;;;;;6.95;2.92;;;26.70;68.30;;;;;;5072472;28;20024;-73
2023/07/21 03:35:04;;;;;;;3.10;2.42;;;26.70;68.40;;;;;;5072483;28;20029;-72
2023/07/21 03:37:31;;;;;;;6.97;2.50;;;26.70;68.90;;;;;;5072404;28;20027;-73
2023/07/21 03:39:57;;;;;;;8.98;2.80;;;26.70;69.60;;;;;;5072390;28;20462;-73
2023/07/21 03:42:23;;;;;;;6.85;2.45;;;26.60;68.90;;;;;;5072373;28;20020;-73
2023/07/21 03:44:49;;;;;;;4.32;2.38;;;26.70;68.80;;;;;;5072719;28;20021;-72
2023/07/21 03:47:17;;;;;;;7.10;2.95;;;26.60;68.60;;;;;;5072448;28;20042;-72
2023/07/21 03:49:44;;;;;;;7.13;2.60;;;26.60;68.40;;;;;;5075340;28;20394;-72
2023/07/21 03:52:10;;;;;;;4.68;2.42;;;26.60;68.70;;;;;;5076212;28;20020;-73
2023/07/21 03:54:36;;;;;;;5.53;3.15;;;26.60;68.60;;;;;;5075963;28;20028;-73
2023/07/21 03:57:01;;;;;;;7.40;2.58;;;26.60;68.50;;;;;;5076113;28;20020;-73
2023/07/21 03:59:28;;;;;;;5.57;2.70;;;26.60;68.40;;;;;;5075962;28;20024;-73
2023/07/21 04:01:53;;;;;;;6.22;2.50;;;26.50;68.10;;;;;;5075755;28;20017;-72
2023/07/21 04:04:19;;;;;;;7.82;2.50;;;26.50;68.10;;;;;;5075947;28;20425;-72
2023/07/21 04:06:45;;;;;;;7.53;3.22;;;26.50;68.10;;;;;;5076034;28;20021;-73
2023/07/21 04:09:13;;;;;;;4.55;2.50;;;26.50;68.20;;;;;;5076041;28;20033;-72
2023/07/21 04:11:40;;;;;;;5.85;2.30;;;26.50;68.80;;;;;;5075866;28;20024;-73
2023/07/21 04:14:06;;;;;;;7.63;2.50;;;26.50;68.20;;;;;;5075680;28;20426;-73
2023/07/21 04:16:32;;;;;;;6.47;2.72;;;26.50;68.20;;;;;;5075631;28;20115;-72
2023/07/21 04:18:58;;;;;;;5.22;2.30;;;26.50;68.30;;;;;;5075922;28;20432;-72
2023/07/21 04:21:25;;;;;;;8.23;2.38;;;26.50;68.80;;;;;;5075675;28;20024;-73
2023/07/21 04:23:51;;;;;;;8.65;2.60;;;26.40;68.90;;;;;;5075897;28;20016;-73
2023/07/21 04:26:17;;;;;;;6.13;2.67;;;26.40;68.80;;;;;;5075458;28;20467;-73
2023/07/21 04:28:44;;;;;;;6.57;2.50;;;26.40;69.00;;;;;;5075501;28;20077;-73
2023/07/21 04:31:10;;;;;;;6.97;2.63;;;26.40;69.30;;;;;;5075697;28;20017;-72
2023/07/21 04:33:36;;;;;;;6.07;2.28;;;26.40;69.70;;;;;;5075671;28;20029;-73
2023/07/21 04:36:03;;;;;;;5.63;3.10;;;26.40;69.70;;;;;;5075313;28;20092;-73
2023/07/21 04:38:28;;;;;;;7.82;2.53;;;26.40;69.90;;;;;;5075677;28;20474;-73
2023/07/21 04:40:54;;;;;;;4.65;2.50;;;26.30;69.40;;;;;;5075728;28;20024;-72
2023/07/21 04:43:20;;;;;;;4.13;2.15;;;26.30;69.00;;;;;;5075495;28;20028;-73
2023/07/21 04:45:46;;;;;;;10.02;2.20;;;26.30;68.50;;;;;;5075229;28;20378;-72
2023/07/21 04:48:12;;;;;;;5.70;2.17;;;26.30;68.10;;;;;;5075369;28;20025;-73
2023/07/21 04:50:42;;;;;;;5.82;2.30;;;26.30;68.10;;;;;;5057138;28;20036;-73
2023/07/21 04:53:08;;;;;;;3.78;2.10;;;26.30;68.50;;;;;;5075066;28;20019;-72
2023/07/21 04:55:34;;;;;;;3.85;2.13;;;26.30;68.80;;;;;;5075188;28;20091;-72
2023/07/21 04:58:01;;;;;;;5.30;2.22;;;26.30;69.20;;;;;;5074783;28;20025;-73
2023/07/21 05:00:27;;;;;;;7.50;2.42;;;26.30;69.50;;;;;;5074108;28;20028;-73
2023/07/21 05:02:53;;;;;;;3.97;2.50;;;26.30;69.10;;;;;;5075030;28;20029;-73
2023/07/21 05:05:19;;;;;;;4.65;2.38;;;26.30;69.10;;;;;;5074882;28;20021;-73
2023/07/21 05:07:45;;;;;;;5.00;2.45;;;26.30;69.20;;;;;;5074805;28;20037;-73
2023/07/21 05:10:10;;;;;;;4.25;2.50;;;26.30;69.10;;;;;;5074948;28;20017;-72
2023/07/21 05:12:36;;;;;;;6.95;2.40;;;26.30;69.20;;;;;;5074707;28;20021;-73
2023/07/21 05:15:02;;;;;;;3.92;2.13;;;26.30;69.20;;;;;;5074788;28;20028;-73
2023/07/21 05:17:28;;;;;;;5.80;2.50;;;26.30;69.50;;;;;;5074388;28;20120;-72
2023/07/21 05:19:54;;;;;;;6.63;2.38;;;26.30;70.00;;;;;;5074516;28;20031;-73
2023/07/21 05:22:19;;;;;;;7.43;3.10;;;26.30;69.40;;;;;;5056771;28;20051;-73
2023/07/21 05:24:45;;;;;;;9.20;2.70;;;26.30;69.50;;;;;;5074688;28;20025;-73
2023/07/21 05:27:11;;;;;;;5.78;2.28;;;26.30;69.90;;;;;;5074211;28;20032;-73
2023/07/21 05:29:37;;;;;;;7.18;2.78;;;26.30;70.10;;;;;;5056475;28;20063;-73
2023/07/21 05:32:05;;;;;;;4.43;2.42;;;26.30;70.40;;;;;;5074131;28;20081;-73
2023/07/21 05:34:32;;;;;;;4.75;2.35;;;26.40;70.70;;;;;;5074110;28;20081;-72
2023/07/21 05:36:58;;;;;;;7.72;2.40;;;26.40;70.80;;;;;;5074655;28;20027;-72
2023/07/21 05:39:28;;;;;;;5.75;2.58;;;26.40;70.30;;;;;;5074350;28;20462;-72
2023/07/21 05:41:57;;;;;;;10.65;2.67;;;26.40;70.00;;;;;;5073984;28;20486;-72
2023/07/21 05:44:23;;;;;;;10.30;3.45;;;26.40;69.50;;;;;;5073963;28;20024;-72
2023/07/21 05:46:49;;;;;;;6.80;2.30;;;26.40;69.40;;;;;;5074261;28;20048;-72
2023/07/21 05:49:16;;;;;;;7.25;2.20;;;26.40;69.70;;;;;;5074645;28;20099;-73
2023/07/21 05:51:43;;;;;;;3.00;2.60;;;26.40;69.40;;;;;;5074159;28;20478;-73
2023/07/21 05:54:08;;;;;;;6.10;2.45;;;26.40;69.60;;;;;;5074182;28;20509;-72
2023/07/21 05:56:34;;;;;;;2.95;1.98;;;26.50;69.50;;;;;;5073969;28;20016;-73
2023/07/21 05:59:00;;;;;;;4.32;2.58;;;26.50;69.60;;;;;;5055766;28;20069;-73
2023/07/21 06:01:27;;;;;;;9.52;2.33;;;26.50;69.60;;;;;;5073853;28;20100;-73
2023/07/21 06:03:53;;;;;;;4.88;2.10;;;26.50;69.60;;;;;;5074070;28;20374;-73
2023/07/21 06:06:24;;;;;;;8.25;2.20;;;26.50;69.70;;;;;;5073781;28;20020;-73
2023/07/21 06:08:51;;;;;;;5.37;2.30;;;26.60;70.20;;;;;;5073711;28;20032;-72
2023/07/21 06:11:17;;;;;;;7.57;2.55;;;26.50;69.90;;;;;;5073464;28;20258;-72
2023/07/21 06:13:43;;;;;;;4.45;2.33;;;26.60;69.60;;;;;;5073739;28;20102;-72
2023/07/21 06:16:09;;;;;;;4.38;2.63;;;26.50;69.50;;;;;;5073482;28;20044;-72
2023/07/21 06:18:35;;;;;;;5.32;2.45;;;26.50;69.50;;;;;;5073457;28;20052;-72
2023/07/21 06:21:03;;;;;;;6.60;2.40;;;26.60;69.30;;;;;;5073505;28;20022;-72
2023/07/21 06:23:29;;;;;;;6.63;2.58;;;26.60;69.10;;;;;;5073540;28;21088;-72
2023/07/21 06:25:55;;;;;;;6.10;2.63;;;26.60;68.60;;;;;;5073182;28;20059;-72
2023/07/21 06:28:21;;;;;;;7.13;2.25;;;26.60;68.50;;;;;;5073181;28;20060;-72
2023/07/21 06:30:47;;;;;;;4.18;2.20;;;26.60;68.30;;;;;;5073475;28;20016;-72
2023/07/21 06:33:13;;;;;;;4.95;2.75;;;26.60;68.20;;;;;;5073307;28;20383;-72
2023/07/21 06:35:40;;;;;;;6.35;2.70;;;26.70;68.20;;;;;;5073309;28;20024;-72
2023/07/21 06:38:07;;;;;;;5.32;2.33;;;26.70;67.80;;;;;;5073313;28;20059;-72
2023/07/21 06:40:33;;;;;;;4.35;2.42;;;26.70;68.20;;;;;;5073162;28;20029;-72
2023/07/21 06:42:59;;;;;;;4.45;2.30;;;26.60;67.20;;;;;;5073184;28;20123;-72
2023/07/21 06:45:25;;;;;;;5.72;2.42;;;26.60;67.30;;;;;;5055000;28;20518;-72
2023/07/21 06:47:51;;;;;;;4.72;2.28;;;26.60;67.50;;;;;;5072842;28;20036;-72
2023/07/21 06:50:17;;;;;;;5.45;2.42;;;26.60;67.30;;;;;;5073042;28;20016;-72
2023/07/21 06:52:43;;;;;;;4.35;2.45;;;26.60;67.50;;;;;;5073118;28;20531;-72
2023/07/21 06:55:09;;;;;;;4.93;2.90;;;26.60;67.80;;;;;;5072734;28;20032;-72
2023/07/21 06:57:34;;;;;;;10.65;2.50;;;26.60;68.00;;;;;;5072873;28;20382;-72
2023/07/21 07:00:00;;;;;;;5.82;2.50;;;26.60;68.00;;;;;;5072737;28;20024;-72
2023/07/21 07:02:26;;;;;;;5.30;2.17;;;26.60;68.30;;;;;;5072785;28;20028;-72
2023/07/21 07:04:53;;;;;;;6.57;2.42;;;26.60;68.10;;;;;;5072795;28;20031;-72
2023/07/21 07:07:19;;;;;;;3.28;2.33;;;26.60;68.00;;;;;;5072843;28;20021;-72
2023/07/21 07:09:45;;;;;;;6.13;2.20;;;26.60;68.10;;;;;;5072978;28;20491;-72
2023/07/21 07:12:11;;;;;;;5.55;2.20;;;26.60;68.30;;;;;;5072572;28;20382;-72
2023/07/21 07:14:37;;;;;;;3.30;2.00;;;26.60;68.40;;;;;;5072568;28;20020;-72
2023/07/21 07:17:03;;;;;;;8.07;2.45;;;26.60;68.70;;;;;;5072714;28;20052;-72
2023/07/21 07:19:29;;;;;;;4.55;2.33;;;26.60;69.10;;;;;;5072850;28;20027;-72
2023/07/21 07:21:55;;;;;;;6.13;2.15;;;26.60;69.00;;;;;;5072899;28;20104;-72
2023/07/21 07:24:20;;;;;;;4.20;2.20;;;26.70;68.80;;;;;;5077464;28;20040;-72
2023/07/21 07:26:47;;;;;;;5.07;2.97;;;26.70;69.00;;;;;;5079259;28;20500;-72
2023/07/21 07:29:15;;;;;;;4.97;2.47;;;26.60;69.10;;;;;;5061170;28;20028;-72
2023/07/21 07:31:41;;;;;;;5.35;2.15;;;26.70;69.00;;;;;;5079019;28;20024;-72
2023/07/21 07:34:07;;;;;;;3.22;2.17;;;26.70;69.30;;;;;;5061164;28;20036;-72
2023/07/21 07:36:33;;;;;;;5.65;2.13;;;26.70;69.10;;;;;;5079369;28;20036;-72
2023/07/21 07:38:58;;;;;;;6.15;2.67;;;26.70;68.70;;;;;;5061172;28;20029;-73
2023/07/21 07:41:24;;;;;;;8.45;2.42;;;26.70;68.70;;;;;;5079145;28;20021;-72
2023/07/21 07:43:50;;;;;;;5.15;2.70;;;26.70;69.20;;;;;;5079234;28;20025;-72
2023/07/21 07:46:17;;;;;;;4.35;2.50;;;26.70;69.50;;;;;;5078971;28;20371;-72
2023/07/21 07:48:44;;;;;;;11.57;2.42;;;26.70;69.60;;;;;;5078831;28;20029;-72
2023/07/21 07:51:10;;;;;;;6.10;2.45;;;26.70;69.40;;;;;;5079321;28;20054;-72
2023/07/21 07:53:36;;;;;;;4.72;2.60;;;26.70;69.40;;;;;;5079215;28;20025;-72
2023/07/21 07:56:03;;;;;;;6.40;2.50;;;26.70;69.30;;;;;;5078840;28;20070;-72
2023/07/21 07:58:29;;;;;;;4.05;2.50;;;26.70;69.20;;;;;;5078891;28;20501;-72
2023/07/21 08:01:01;;;;;;;4.55;2.40;;;26.70;69.20;;;;;;5078721;28;20051;-72
2023/07/21 08:03:27;;;;;;;4.90;2.28;;;26.70;68.90;;;;;;5078895;28;20390;-72
2023/07/21 08:05:53;;;;;;;7.13;2.70;;;26.70;68.70;;;;;;5060848;28;20020;-72
2023/07/21 08:08:22;;;;;;;6.78;2.38;;;26.70;68.90;;;;;;5078947;28;20037;-72
2023/07/21 08:10:48;;;;;;;7.45;2.70;;;26.60;69.10;;;;;;5078964;28;20544;-72
2023/07/21 08:13:14;;;;;;;5.80;2.50;;;26.70;70.00;;;;;;5079175;28;20052;-72
2023/07/21 08:15:40;;;;;;;4.85;2.55;;;26.70;69.20;;;;;;5078561;28;20500;-72
2023/07/21 08:18:07;;;;;;;4.88;2.50;;;26.70;69.10;;;;;;5078474;28;20058;-72
2023/07/21 08:20:32;;;;;;;7.43;2.78;;;26.70;69.10;;;;;;5078907;28;20017;-72
2023/07/21 08:22:58;;;;;;;3.90;2.22;;;26.70;69.20;;;;;;5078990;28;20040;-72
2023/07/21 08:25:25;;;;;;;5.95;2.63;;;26.70;69.30;;;;;;5078724;28;20062;-72
2023/07/21 08:27:51;;;;;;;5.45;2.60;;;26.70;69.40;;;;;;5078737;28;20040;-72
2023/07/21 08:30:17;;;;;;;4.40;2.90;;;26.70;69.40;;;;;;5078793;28;20023;-72
2023/07/21 08:32:43;;;;;;;7.80;2.70;;;26.70;69.40;;;;;;5078503;28;20077;-72
2023/07/21 08:35:09;;;;;;;5.32;2.47;;;26.70;69.70;;;;;;5075898;28;20025;-72
2023/07/21 08:37:35;;;;;;;4.57;2.70;;;26.70;70.00;;;;;;5075689;28;20028;-72
2023/07/21 08:40:01;;;;;;;8.25;2.65;;;26.70;69.70;;;;;;5075199;28;20378;-72
2023/07/21 08:42:27;;;;;;;5.45;2.58;;;26.70;69.40;;;;;;5075358;28;20074;-72
2023/07/21 08:44:57;;;;;;;7.13;3.00;;;26.70;69.70;;;;;;5075401;28;20467;-72
2023/07/21 08:47:26;;;;;;;4.30;2.92;;;26.70;69.90;;;;;;5075240;28;20032;-72
2023/07/21 08:49:51;;;;;;;7.15;2.40;;;26.70;70.10;;;;;;5075772;28;20016;-72
2023/07/21 08:52:17;;;;;;;5.68;2.78;;;26.70;70.10;;;;;;5075004;28;20029;-72
2023/07/21 08:54:43;;;;;;;3.63;2.38;;;26.70;70.30;;;;;;5075366;28;20016;-72
2023/07/21 08:57:12;;;;;;;5.70;2.60;;;26.70;70.60;;;;;;5075204;28;20029;-71
2023/07/21 08:59:39;;;;;;;11.70;2.92;;;26.70;70.40;;;;;;5075158;28;20082;-72
2023/07/21 09:02:05;;;;;;;6.40;2.70;;;26.70;70.50;;;;;;5075220;28;20029;-72
2023/07/21 09:04:31;;;;;;;6.10;3.42;;;26.70;70.50;;;;;;5074954;28;20024;-72
2023/07/21 09:06:59;;;;;;;7.57;2.95;;;26.70;70.60;;;;;;5074848;28;20032;-72
2023/07/21 09:09:27;;;;;;;4.38;3.10;;;26.70;70.90;;;;;;5075026;28;20024;-72
2023/07/21 09:12:04;;;;;;;4.97;3.00;;;26.70;71.00;;;;;;5074909;28;20424;-72
2023/07/21 09:14:37;;;;;;;5.00;2.90;;;26.70;70.90;;;;;;5074827;28;20475;-72
2023/07/21 09:17:08;;;;;;;6.25;2.67;;;26.70;71.00;;;;;;5082365;22;20135;-72
2023/07/21 09:19:38;;;;;;;5.85;3.08;;;26.70;71.10;;;;;;5074822;28;20501;-72
2023/07/21 09:22:04;;;;;;;5.50;3.00;;;26.70;71.50;;;;;;5075022;28;20073;-72
2023/07/21 09:24:30;;;;;;;4.40;2.88;;;26.70;71.50;;;;;;5074743;28;20037;-72
2023/07/21 09:27:16;;;;;;;4.65;2.63;;;26.70;71.50;;;;;;5074816;28;20032;-72
2023/07/21 09:29:43;;;;;;;4.72;2.40;;;26.70;71.60;;;;;;5074467;28;20415;-72
2023/07/21 09:32:17;;;;;;;6.07;3.20;;;26.70;71.70;;;;;;5074328;28;20085;-72
2023/07/21 09:34:56;;;;;;;5.43;3.08;;;26.70;71.90;;;;;;5074531;28;20085;-72
2023/07/21 09:37:26;;;;;;;4.55;2.97;;;26.80;72.00;;;;;;5074449;28;20419;-72
2023/07/21 09:39:55;;;;;;;9.02;3.25;;;26.80;72.40;;;;;;5074424;28;20025;-72
2023/07/21 09:42:28;;;;;;;5.35;2.72;;;26.80;72.90;;;;;;5074177;28;20508;-72
2023/07/21 09:44:55;;;;;;;4.97;2.83;;;26.80;72.50;;;;;;5074563;28;20033;-72
2023/07/21 09:47:22;;;;;;;5.28;2.58;;;26.90;72.20;;;;;;5073698;28;20378;-72
2023/07/21 09:49:49;;;;;;;4.20;3.03;;;26.90;72.20;;;;;;5074156;28;20025;-72
2023/07/21 09:52:17;;;;;;;4.05;3.15;;;26.90;72.30;;;;;;5074013;28;20070;-72
2023/07/21 09:55:13;;;;;;;5.80;2.97;;;26.90;72.50;;;;;;5055949;28;20031;-72
2023/07/21 09:57:45;;;;;;;3.47;2.53;;;26.90;72.60;;;;;;5074102;28;20017;-72
2023/07/21 10:00:15;;;;;;;7.00;2.92;;;27.00;72.60;;;;;;5074126;28;20024;-73
2023/07/21 10:02:43;;;;;;;7.30;3.10;;;26.90;72.60;;;;;;5073898;28;20091;-72
2023/07/21 10:05:13;;;;;;;3.88;2.67;;;26.90;72.70;;;;;;5073912;28;20032;-72
2023/07/21 10:07:42;;;;;;;7.40;2.70;;;26.90;72.70;;;;;;5073864;28;20036;-72
2023/07/21 10:10:10;;;;;;;3.85;2.78;;;26.90;72.70;;;;;;5073900;28;20359;-72
2023/07/21 10:12:42;;;;;;;5.70;2.88;;;26.90;72.80;;;;;;5073399;28;20107;-72
2023/07/21 10:15:29;;;;;;;5.63;3.00;;;26.90;72.80;;;;;;5073967;28;20068;-72
2023/07/21 10:18:00;;;;;;;5.82;2.90;;;27.00;72.90;;;;;;5073408;28;20044;-72
2023/07/21 10:20:45;;;;;;;4.75;2.58;;;27.00;73.10;;;;;;5073599;28;20028;-71
2023/07/21 10:23:13;;;;;;;5.93;3.17;;;27.00;73.40;;;;;;5073589;28;20039;-72
2023/07/21 10:25:52;;;;;;;4.72;2.92;;;27.00;73.40;;;;;;5073568;28;20070;-72
2023/07/21 10:28:31;;;;;;;5.88;3.28;;;27.10;73.60;;;;;;5073446;28;20486;-72
2023/07/21 10:31:25;;;;;;;5.68;2.80;;;27.10;73.70;;;;;;5073436;28;20391;-72
2023/07/21 10:34:06;;;;;;;17.60;3.30;;;27.10;73.50;;;;;;5073276;28;20368;-72
2023/07/21 10:36:52;;;;;;;6.72;3.13;;;27.20;73.20;;;;;;5073170;28;20055;-72
2023/07/21 10:39:24;;;;;;;9.52;4.07;;;27.30;73.20;;;;;;5073288;28;20087;-72
2023/07/21 10:41:51;;;;;;;6.93;3.13;;;27.30;73.00;;;;;;5073190;28;20028;-72
2023/07/21 10:44:18;;;;;;;6.78;3.00;;;27.40;73.30;;;;;;5073020;28;20397;-72
2023/07/21 10:46:46;;;;;;;9.07;3.70;;;27.50;73.60;;;;;;5072663;28;20119;-72
2023/07/21 10:49:15;;;;;;;9.10;3.55;;;27.70;73.00;;;;;;5073075;28;20032;-72
2023/07/21 10:51:45;;;;;;;6.78;3.10;;;27.80;72.40;;;;;;5073018;28;20478;-72
2023/07/21 10:54:13;;;;;;;7.80;3.93;;;27.90;72.10;;;;;;5073185;28;20123;-72
2023/07/21 10:56:41;;;;;;;8.90;3.40;;;28.00;71.90;;;;;;5072928;28;20035;-72
2023/07/21 10:59:08;;;;;;;8.55;3.60;;;28.00;71.50;;;;;;5072102;28;20070;-72
2023/07/21 11:01:41;;;;;;;5.97;3.45;;;28.00;71.50;;;;;;5072883;28;20095;-72
2023/07/21 11:04:07;;;;;;;6.97;3.95;;;28.00;71.60;;;;;;5073112;28;20024;-72
2023/07/21 11:06:41;;;;;;;19.48;4.30;;;28.10;71.60;;;;;;5072887;28;20021;-72
2023/07/21 11:09:13;;;;;;;12.93;3.97;;;28.00;71.70;;;;;;5072740;28;20036;-72
2023/07/21 11:11:46;;;;;;;10.50;3.70;;;28.00;71.20;;;;;;5054922;28;20025;-72
2023/07/21 11:14:17;;;;;;;13.75;4.10;;;28.00;71.50;;;;;;5070184;28;20432;-72
2023/07/21 11:16:57;;;;;;;7.47;3.70;;;28.10;71.10;;;;;;5070051;28;20517;-72
2023/07/21 11:19:25;;;;;;;10.82;3.65;;;28.00;70.90;;;;;;5072063;28;20028;-72
2023/07/21 11:21:51;;;;;;;11.70;4.38;;;28.00;70.70;;;;;;5072989;28;20020;-72
2023/07/21 11:24:18;;;;;;;8.35;3.83;;;28.00;71.20;;;;;;5072707;28;20060;-72
2023/07/21 11:26:48;;;;;;;8.95;4.15;;;27.90;71.40;;;;;;5072629;28;20021;-72
2023/07/21 11:29:15;;;;;;;8.27;3.85;;;28.00;71.40;;;;;;5072762;28;20033;-72
2023/07/21 11:31:41;;;;;;;7.00;3.58;;;27.90;71.40;;;;;;5072809;28;20040;-72
2023/07/21 11:34:28;;;;;;;8.55;4.32;;;27.90;71.70;;;;;;5072510;28;20025;-72
2023/07/21 11:36:59;;;;;;;8.57;4.32;;;27.90;71.80;;;;;;5072430;28;20020;-72
2023/07/21 11:39:27;;;;;;;10.07;4.20;;;27.90;71.60;;;;;;5069555;28;20037;-72
2023/07/21 11:41:54;;;;;;;5.80;3.63;;;27.90;71.70;;;;;;5069706;28;20021;-72
2023/07/21 11:44:28;;;;;;;7.32;3.88;;;27.90;72.00;;;;;;5070339;28;20425;-72
2023/07/21 11:46:54;;;;;;;9.93;4.07;;;27.80;72.30;;;;;;5072519;28;20074;-72
2023/07/21 11:49:25;;;;;;;7.72;3.92;;;27.80;72.40;;;;;;5072487;28;20112;-73
2023/07/21 11:51:52;;;;;;;9.50;3.90;;;27.80;72.60;;;;;;5072509;28;20086;-72
2023/07/21 11:54:29;;;;;;;7.90;3.85;;;27.80;72.70;;;;;;5072293;28;20028;-72
2023/07/21 11:56:56;;;;;;;12.65;4.18;;;27.70;72.50;;;;;;5073232;28;20020;-71
2023/07/21 11:59:24;;;;;;;8.25;3.58;;;27.70;73.00;;;;;;5072503;28;20073;-73
2023/07/21 12:01:50;;;;;;;8.23;3.63;;;27.70;72.40;;;;;;5072367;28;20171;-72
2023/07/21 12:04:19;;;;;;;10.73;4.22;;;27.70;72.50;;;;;;5072302;28;20343;-72
2023/07/21 12:06:44;;;;;;;11.02;3.50;;;27.60;72.40;;;;;;5072344;28;20382;-72
2023/07/21 12:09:12;;;;;;;7.28;3.75;;;27.60;72.40;;;;;;5072791;28;20029;-72
2023/07/21 12:11:38;;;;;;;9.25;4.20;;;27.60;73.20;;;;;;5076133;28;20410;-72
2023/07/21 12:14:05;;;;;;;13.63;4.65;;;27.60;72.70;;;;;;5075943;28;20031;-72
2023/07/21 12:16:32;;;;;;;11.43;3.97;;;27.50;73.50;;;;;;5075735;28;20383;-72
2023/07/21 12:18:58;;;;;;;9.05;4.35;;;27.50;74.00;;;;;;5076158;28;20382;-72
2023/07/21 12:21:27;;;;;;;6.80;3.83;;;27.50;74.30;;;;;;5075869;28;20028;-72
2023/07/21 12:23:53;;;;;;;10.82;3.88;;;27.40;75.10;;;;;;5075759;28;20039;-72
2023/07/21 12:26:19;;;;;;;8.23;3.90;;;27.40;75.70;;;;;;5075988;28;20033;-72
2023/07/21 12:28:48;;;;;;;12.18;4.57;;;27.40;76.70;;;;;;5075545;28;20055;-72
2023/07/21 12:31:14;;;;;;;7.80;4.15;;;27.30;77.40;;;;;;5075644;28;20021;-72
2023/07/21 12:33:41;;;;;;;10.95;4.07;;;27.30;78.10;;;;;;5075774;28;20028;-72
2023/07/21 12:36:07;;;;;;;9.00;4.28;;;27.30;78.60;;;;;;5075667;28;20025;-72
2023/07/21 12:38:33;;;;;;;8.02;4.45;;;27.20;78.80;;;;;;5075412;28;20130;-72
2023/07/21 12:40:59;;;;;;;5.35;4.03;;;27.20;79.50;;;;;;5075709;28;20469;-72
2023/07/21 12:43:25;;;;;;;6.85;3.95;;;27.20;80.70;;;;;;5075446;28;20025;-72
2023/07/21 12:45:50;;;;;;;10.38;4.85;;;27.10;81.70;;;;;;5075651;28;20052;-72
2023/07/21 12:48:16;;;;;;;12.38;4.70;;;27.10;82.20;;;;;;5075251;28;20562;-72